createdAt,value
2022-08-07T00:02:39.761Z,3.87
2022-08-07T00:05:06.513Z,3.35
2022-08-07T00:07:41.209Z,3.70
2022-08-07T00:10:29.758Z,3.75
2022-08-07T00:13:23.502Z,3.63
2022-08-07T00:15:53.844Z,3.40
2022-08-07T00:18:30.366Z,3.75
2022-08-07T00:21:07.841Z,3.22
2022-08-07T00:23:41.158Z,3.58
2022-08-07T00:26:31.420Z,3.22
2022-08-07T00:29:06.725Z,3.83
2022-08-07T00:31:42.087Z,3.13
2022-08-07T00:34:12.043Z,3.42
2022-08-07T00:36:43.590Z,3.80
2022-08-07T00:39:16.414Z,3.55
2022-08-07T00:42:02.427Z,3.47
2022-08-07T00:44:41.265Z,3.60
2022-08-07T00:48:05.203Z,4.07
2022-08-07T00:50:21.168Z,4.38
2022-08-07T00:52:49.957Z,4.00
2022-08-07T00:55:25.561Z,4.23
2022-08-07T00:58:12.551Z,4.63
2022-08-07T01:00:53.642Z,4.00
2022-08-07T01:03:57.236Z,3.92
2022-08-07T01:06:13.286Z,4.05
2022-08-07T01:08:53.142Z,4.30
2022-08-07T01:12:10.184Z,4.47
2022-08-07T01:14:15.459Z,4.07
2022-08-07T01:16:47.119Z,5.03
2022-08-07T01:19:19.788Z,4.50
2022-08-07T01:21:53.322Z,4.47
2022-08-07T01:24:24.689Z,4.38
2022-08-07T01:26:55.507Z,4.15
2022-08-07T01:29:31.323Z,4.32
2022-08-07T01:32:05.626Z,4.03
2022-08-07T01:34:47.436Z,4.17
2022-08-07T01:37:19.067Z,3.88
2022-08-07T01:39:50.105Z,4.53
2022-08-07T01:42:39.236Z,4.35
2022-08-07T01:45:18.173Z,3.92
2022-08-07T01:48:18.169Z,4.00
2022-08-07T01:50:40.203Z,3.83
2022-08-07T01:53:20.913Z,4.22
2022-08-07T01:55:58.985Z,3.33
2022-08-07T01:58:33.369Z,3.75
2022-08-07T02:01:58.989Z,3.90
2022-08-07T02:04:11.095Z,4.07
2022-08-07T02:06:42.557Z,3.78
2022-08-07T02:09:51.976Z,3.97
2022-08-07T02:12:18.270Z,3.28
2022-08-07T02:14:58.800Z,3.70
2022-08-07T02:17:33.966Z,3.53
2022-08-07T02:20:10.065Z,4.40
2022-08-07T02:22:47.577Z,3.88
2022-08-07T02:26:10.674Z,3.80
2022-08-07T02:28:25.393Z,4.07
2022-08-07T02:30:58.178Z,3.47
2022-08-07T02:33:41.858Z,3.22
2022-08-07T02:36:30.819Z,3.03
2022-08-07T02:39:09.304Z,3.30
2022-08-07T02:41:54.580Z,3.53
2022-08-07T02:44:27.425Z,2.90
2022-08-07T02:47:04.879Z,3.03
2022-08-07T02:49:58.549Z,2.90
2022-08-07T02:52:37.084Z,3.17
2022-08-07T02:55:28.297Z,2.70
2022-08-07T02:58:14.479Z,3.25
2022-08-07T03:00:46.807Z,2.63
2022-08-07T03:03:21.175Z,3.35
2022-08-07T03:05:56.365Z,2.65
2022-08-07T03:08:29.264Z,3.37
2022-08-07T03:10:59.966Z,3.10
2022-08-07T03:13:38.721Z,3.20
2022-08-07T03:16:08.770Z,3.00
2022-08-07T03:18:39.442Z,3.20
2022-08-07T03:21:13.745Z,3.23
2022-08-07T03:24:19.307Z,2.83
2022-08-07T03:26:43.096Z,3.08
2022-08-07T03:29:36.763Z,2.90
2022-08-07T03:32:13.423Z,2.67
2022-08-07T03:35:01.124Z,2.57
2022-08-07T03:37:53.155Z,2.80
2022-08-07T03:40:30.657Z,3.20
2022-08-07T03:43:09.962Z,3.10
2022-08-07T03:45:48.571Z,3.20
2022-08-07T03:48:18.359Z,2.90
2022-08-07T03:50:55.933Z,3.00
2022-08-07T03:54:00.798Z,2.80
2022-08-07T03:56:32.533Z,2.90
2022-08-07T03:59:07.098Z,3.00
2022-08-07T04:01:45.329Z,2.83
2022-08-07T04:04:18.800Z,3.03
2022-08-07T04:06:50.944Z,2.80
2022-08-07T04:09:24.325Z,2.92
2022-08-07T04:12:24.889Z,3.00
2022-08-07T04:14:47.598Z,2.90
2022-08-07T04:17:21.438Z,3.15
2022-08-07T04:19:54.865Z,2.90
2022-08-07T04:22:29.003Z,3.13
2022-08-07T04:25:02.348Z,2.67
2022-08-07T04:27:43.988Z,2.87
2022-08-07T04:30:35.831Z,2.40
2022-08-07T04:33:14.019Z,3.30
2022-08-07T04:35:50.398Z,3.03
2022-08-07T04:38:21.090Z,2.80
2022-08-07T04:40:53.213Z,3.07
2022-08-07T04:44:09.706Z,3.50
2022-08-07T04:47:04.835Z,2.83
2022-08-07T04:49:42.132Z,3.38
2022-08-07T04:52:25.216Z,3.22
2022-08-07T04:55:15.635Z,2.70
2022-08-07T04:58:29.282Z,3.42
2022-08-07T05:01:06.073Z,3.60
2022-08-07T05:04:07.435Z,3.30
2022-08-07T05:06:51.468Z,3.45
2022-08-07T05:09:45.843Z,3.30
2022-08-07T05:12:26.776Z,3.50
2022-08-07T05:15:05.066Z,3.03
2022-08-07T05:17:51.697Z,3.10
2022-08-07T05:20:28.067Z,3.70
2022-08-07T05:23:06.218Z,3.70
2022-08-07T05:26:12.847Z,3.28
2022-08-07T05:28:40.631Z,3.80
2022-08-07T05:31:10.655Z,3.67
2022-08-07T05:33:41.050Z,3.70
2022-08-07T05:36:35.221Z,3.80
2022-08-07T05:39:08.914Z,3.90
2022-08-07T05:42:02.262Z,3.95
2022-08-07T05:44:37.275Z,4.10
2022-08-07T05:47:18.702Z,4.32
2022-08-07T05:50:06.398Z,4.13
2022-08-07T05:52:35.800Z,3.88
2022-08-07T05:55:10.682Z,3.83
2022-08-07T05:57:42.653Z,3.83
2022-08-07T06:00:15.956Z,3.72
2022-08-07T06:02:51.188Z,3.87
2022-08-07T06:05:25.802Z,4.13
2022-08-07T06:08:29.954Z,4.20
2022-08-07T06:10:52.020Z,3.80
2022-08-07T06:14:10.549Z,4.18
2022-08-07T06:16:14.059Z,4.17
2022-08-07T06:18:55.667Z,3.88
2022-08-07T06:22:14.679Z,4.25
2022-08-07T06:24:41.901Z,4.40
2022-08-07T06:27:06.030Z,3.75
2022-08-07T06:29:39.008Z,3.93
2022-08-07T06:32:08.850Z,3.95
2022-08-07T06:34:45.294Z,4.50
2022-08-07T06:37:17.001Z,3.88
2022-08-07T06:40:15.858Z,4.47
2022-08-07T06:42:38.689Z,4.13
2022-08-07T06:45:12.783Z,4.70
2022-08-07T06:47:58.903Z,4.50
2022-08-07T06:50:30.351Z,4.50
2022-08-07T06:53:00.947Z,4.38
2022-08-07T06:56:00.066Z,4.77
2022-08-07T06:58:27.536Z,4.20
2022-08-07T07:00:59.421Z,4.47
2022-08-07T07:03:48.871Z,4.63
2022-08-07T07:06:23.944Z,4.20
2022-08-07T07:08:56.819Z,4.33
2022-08-07T07:12:07.791Z,4.50
2022-08-07T07:14:19.232Z,4.28
2022-08-07T07:16:55.036Z,4.22
2022-08-07T07:19:55.828Z,4.85
2022-08-07T07:22:36.787Z,5.10
2022-08-07T07:26:32.564Z,4.85
2022-08-07T07:28:42.496Z,4.85
2022-08-07T07:31:44.636Z,4.63
2022-08-07T07:34:20.477Z,5.40
2022-08-07T07:36:53.765Z,4.37
2022-08-07T07:39:25.421Z,4.70
2022-08-07T07:42:12.993Z,4.97
2022-08-07T07:44:49.519Z,4.45
2022-08-07T07:47:23.034Z,4.78
2022-08-07T07:50:35.565Z,5.23
2022-08-07T07:52:46.879Z,5.53
2022-08-07T07:55:17.169Z,4.75
2022-08-07T07:57:53.217Z,4.55
2022-08-07T08:00:29.949Z,4.88
2022-08-07T08:03:16.645Z,4.23
2022-08-07T08:05:54.803Z,4.75
2022-08-07T08:08:35.339Z,4.70
2022-08-07T08:11:13.606Z,4.50
2022-08-07T08:13:53.931Z,4.55
2022-08-07T08:16:50.419Z,4.37
2022-08-07T08:20:18.529Z,4.90
2022-08-07T08:22:35.401Z,4.45
2022-08-07T08:25:43.014Z,4.45
2022-08-07T08:28:23.893Z,3.90
2022-08-07T08:31:16.049Z,4.57
2022-08-07T08:33:49.447Z,4.25
2022-08-07T08:36:25.619Z,4.43
2022-08-07T08:39:02.811Z,4.68
2022-08-07T08:41:57.919Z,4.90
2022-08-07T08:44:45.779Z,4.90
2022-08-07T08:47:25.710Z,4.70
2022-08-07T08:50:35.387Z,4.03
2022-08-07T08:53:35.852Z,4.68
2022-08-07T08:56:38.574Z,4.80
2022-08-07T08:59:19.809Z,3.87
2022-08-07T09:02:35.143Z,4.60
2022-08-07T09:05:36.816Z,3.83
2022-08-07T09:08:46.705Z,4.53
2022-08-07T09:11:43.304Z,4.22
2022-08-07T09:14:15.946Z,4.53
2022-08-07T09:17:27.471Z,4.95
2022-08-07T09:20:35.553Z,4.32
2022-08-07T09:24:31.727Z,4.13
2022-08-07T09:27:11.893Z,4.57
2022-08-07T09:30:05.421Z,4.30
2022-08-07T09:32:46.187Z,4.22
2022-08-07T09:36:04.301Z,4.57
2022-08-07T09:38:28.462Z,4.30
2022-08-07T09:41:09.713Z,4.28
2022-08-07T09:44:05.764Z,4.00
2022-08-07T09:47:52.781Z,4.03
2022-08-07T09:50:00.664Z,3.90
2022-08-07T09:52:48.563Z,4.07
2022-08-07T09:56:05.267Z,4.35
2022-08-07T09:58:56.564Z,4.20
2022-08-07T10:01:52.419Z,3.45
2022-08-07T10:04:47.684Z,3.78
2022-08-07T10:07:39.791Z,3.53
2022-08-07T10:11:16.733Z,3.40
2022-08-07T10:14:00.959Z,3.73
2022-08-07T10:17:02.807Z,3.65
2022-08-07T10:20:13.049Z,3.83
2022-08-07T10:22:51.630Z,3.53
2022-08-07T10:25:24.744Z,3.72
2022-08-07T10:28:33.162Z,3.80
2022-08-07T10:31:39.264Z,3.85
2022-08-07T10:34:18.403Z,2.92
2022-08-07T10:37:16.140Z,3.38
2022-08-07T10:40:23.675Z,3.20
2022-08-07T10:43:34.616Z,3.67
2022-08-07T10:46:21.615Z,3.30
2022-08-07T10:49:12.005Z,3.35
2022-08-07T10:52:02.219Z,3.58
2022-08-07T10:54:53.513Z,3.60
2022-08-07T10:57:40.741Z,3.60
2022-08-07T11:00:39.171Z,3.33
2022-08-07T11:03:37.303Z,3.30
2022-08-07T11:06:41.538Z,3.17
2022-08-07T11:10:07.713Z,3.22
2022-08-07T11:12:39.341Z,3.33
2022-08-07T11:15:18.821Z,2.88
2022-08-07T11:17:56.559Z,3.13
2022-08-07T11:20:44.550Z,2.88
2022-08-07T11:23:41.469Z,2.95
2022-08-07T11:26:30.490Z,3.70
2022-08-07T11:29:05.666Z,2.90
2022-08-07T11:32:02.326Z,3.47
2022-08-07T11:34:56.345Z,2.70
2022-08-07T11:37:57.837Z,3.00
2022-08-07T11:40:56.531Z,3.07
2022-08-07T11:44:10.990Z,3.08
2022-08-07T11:46:38.670Z,2.85
2022-08-07T11:49:50.427Z,3.35
2022-08-07T11:52:35.479Z,2.85
2022-08-07T11:56:09.046Z,3.13
2022-08-07T11:58:33.516Z,3.33
2022-08-07T12:01:59.982Z,2.92
2022-08-07T12:04:48.719Z,3.25
2022-08-07T12:07:39.253Z,3.08
2022-08-07T12:10:28.218Z,2.77
2022-08-07T12:13:11.600Z,3.35
2022-08-07T12:16:11.965Z,3.25
2022-08-07T12:19:35.344Z,3.42
2022-08-07T12:22:37.520Z,3.38
2022-08-07T12:26:05.494Z,3.40
2022-08-07T12:28:31.488Z,3.28
2022-08-07T12:31:09.332Z,2.90
2022-08-07T12:34:01.329Z,2.88
2022-08-07T12:36:33.103Z,3.05
2022-08-07T12:39:41.942Z,3.00
2022-08-07T12:41:55.367Z,2.72
2022-08-07T12:44:26.978Z,2.80
2022-08-07T12:47:30.680Z,3.13
2022-08-07T12:50:33.929Z,3.35
2022-08-07T12:53:19.036Z,3.20
2022-08-07T12:56:02.797Z,3.83
2022-08-07T12:58:39.989Z,2.85
2022-08-07T13:01:40.039Z,3.90
2022-08-07T13:05:02.590Z,3.17
2022-08-07T13:08:13.422Z,3.30
2022-08-07T13:10:56.875Z,3.20
2022-08-07T13:13:50.537Z,2.90
2022-08-07T13:16:36.542Z,3.53
2022-08-07T13:19:35.158Z,3.28
2022-08-07T13:22:32.680Z,3.20
2022-08-07T13:25:29.621Z,3.30
2022-08-07T13:28:33.945Z,3.00
2022-08-07T13:31:13.459Z,3.15
2022-08-07T13:34:48.460Z,2.70
2022-08-07T13:41:06.801Z,2.70
2022-08-07T13:43:52.724Z,2.90
2022-08-07T13:46:34.977Z,2.88
2022-08-07T13:50:35.668Z,2.97
2022-08-07T13:52:30.449Z,2.77
2022-08-07T13:55:00.715Z,2.38
2022-08-07T13:57:37.627Z,2.58
2022-08-07T14:00:13.467Z,2.50
2022-08-07T14:02:59.045Z,2.65
2022-08-07T14:05:37.294Z,2.90
2022-08-07T14:08:10.105Z,2.78
2022-08-07T14:10:41.962Z,2.35
2022-08-07T14:13:17.924Z,2.88
2022-08-07T14:15:58.516Z,2.83
2022-08-07T14:18:49.815Z,2.70
2022-08-07T14:22:04.009Z,2.78
2022-08-07T14:24:27.238Z,2.92
2022-08-07T14:28:09.263Z,2.90
2022-08-07T14:30:07.805Z,2.45
2022-08-07T14:32:50.978Z,2.53
2022-08-07T14:35:45.349Z,2.20
2022-08-07T14:38:26.615Z,2.60
2022-08-07T14:41:14.796Z,2.50
2022-08-07T14:43:55.518Z,2.55
2022-08-07T14:46:33.567Z,2.80
2022-08-07T14:52:03.387Z,2.47
2022-08-07T14:54:43.001Z,2.60
2022-08-07T14:57:19.227Z,2.67
2022-08-07T15:00:06.761Z,2.77
2022-08-07T15:02:39.172Z,2.75
2022-08-07T15:05:20.245Z,2.83
2022-08-07T15:07:52.122Z,3.42
2022-08-07T15:10:30.537Z,3.00
2022-08-07T15:13:15.052Z,2.70
2022-08-07T15:15:52.777Z,2.80
2022-08-07T15:18:48.690Z,2.80
2022-08-07T15:25:16.043Z,3.35
2022-08-07T15:27:31.264Z,3.40
2022-08-07T15:30:16.697Z,2.60
2022-08-07T15:33:03.712Z,3.28
2022-08-07T15:42:43.486Z,3.17
2022-08-07T15:44:26.559Z,3.13
2022-08-07T15:47:16.928Z,2.90
2022-08-07T15:50:05.692Z,3.00
2022-08-07T15:52:52.369Z,2.80
2022-08-07T15:55:23.252Z,2.97
2022-08-07T15:58:21.050Z,2.85
2022-08-07T16:00:53.364Z,3.00
2022-08-07T16:03:47.164Z,3.33
2022-08-07T16:06:16.670Z,3.00
2022-08-07T16:08:51.260Z,3.03
2022-08-07T16:12:00.100Z,3.22
2022-08-07T16:14:44.322Z,2.85
2022-08-07T16:18:02.134Z,3.05
2022-08-07T16:22:01.544Z,2.90
2022-08-07T16:24:34.487Z,3.13
2022-08-07T16:27:40.241Z,3.28
2022-08-07T16:30:31.178Z,3.17
2022-08-07T16:34:02.172Z,3.25
2022-08-07T16:36:35.383Z,3.17
2022-08-07T16:39:40.721Z,2.47
2022-08-07T16:42:38.098Z,2.92
2022-08-07T16:46:33.544Z,3.08
2022-08-07T16:50:27.149Z,3.10
2022-08-07T16:52:51.252Z,3.13
2022-08-07T16:55:48.718Z,3.73
2022-08-07T16:58:33.625Z,3.10
2022-08-07T17:01:34.452Z,3.10
2022-08-07T17:04:29.526Z,3.20
2022-08-07T17:07:28.159Z,3.15
2022-08-07T17:10:32.390Z,2.80
2022-08-07T17:13:22.044Z,3.30
2022-08-07T17:16:08.858Z,3.15
2022-08-07T17:18:59.750Z,3.33
2022-08-07T17:21:51.219Z,3.35
2022-08-07T17:24:32.835Z,3.53
2022-08-07T17:27:10.766Z,3.00
2022-08-07T17:30:20.124Z,3.20
2022-08-07T17:34:09.586Z,3.38
2022-08-07T17:36:26.383Z,3.30
2022-08-07T17:39:10.410Z,3.20
2022-08-07T17:42:08.233Z,3.30
2022-08-07T17:44:49.950Z,2.78
2022-08-07T17:47:42.818Z,2.90
2022-08-07T17:50:30.182Z,2.90
2022-08-07T17:53:08.054Z,3.00
2022-08-07T17:56:15.339Z,2.97
2022-08-07T17:58:58.144Z,2.97
2022-08-07T18:01:40.869Z,2.85
2022-08-07T18:04:34.715Z,2.75
2022-08-07T18:07:20.247Z,3.10
2022-08-07T18:10:07.533Z,2.80
2022-08-07T18:12:43.942Z,2.65
2022-08-07T18:15:32.684Z,3.10
2022-08-07T18:18:47.730Z,2.80
2022-08-07T18:21:38.316Z,3.10
2022-08-07T18:24:33.571Z,2.92
2022-08-07T18:27:20.974Z,3.25
2022-08-07T18:30:07.718Z,2.70
2022-08-07T18:33:19.476Z,2.88
2022-08-07T18:36:08.130Z,3.00
2022-08-07T18:40:08.405Z,3.00
2022-08-07T18:42:00.918Z,2.45
2022-08-07T18:45:40.202Z,2.95
2022-08-07T18:50:05.609Z,2.80
2022-08-07T18:52:35.399Z,2.80
2022-08-07T18:54:32.470Z,3.13
2022-08-07T18:57:36.847Z,3.30
2022-08-07T19:00:34.095Z,2.90
2022-08-07T19:03:16.393Z,2.83
2022-08-07T19:06:33.618Z,2.90
2022-08-07T19:09:57.454Z,3.08
2022-08-07T19:12:19.374Z,2.63
2022-08-07T19:14:58.204Z,2.92
2022-08-07T19:18:02.530Z,2.83
2022-08-07T19:21:08.960Z,2.80
2022-08-07T19:23:59.340Z,2.75
2022-08-07T19:27:23.610Z,2.35
2022-08-07T19:31:04.300Z,2.88
2022-08-07T19:32:28.892Z,2.97
2022-08-07T19:35:07.683Z,2.90
2022-08-07T19:37:56.972Z,3.08
2022-08-07T19:40:31.182Z,2.63
2022-08-07T19:43:43.999Z,2.85
2022-08-07T19:46:09.676Z,2.75
2022-08-07T19:48:44.192Z,3.10
2022-08-07T19:51:19.486Z,2.72
2022-08-07T19:54:30.848Z,2.88
2022-08-07T19:57:52.309Z,3.30
2022-08-07T19:59:40.835Z,3.03
2022-08-07T20:02:19.649Z,2.70
2022-08-07T20:04:52.283Z,2.85
2022-08-07T20:07:45.921Z,3.30
2022-08-07T20:10:36.214Z,3.15
2022-08-07T20:13:23.750Z,3.30
2022-08-07T20:15:57.924Z,3.30
2022-08-07T20:18:32.302Z,2.40
2022-08-07T20:21:14.273Z,2.55
2022-08-07T20:24:02.334Z,2.75
2022-08-07T20:26:44.852Z,3.10
2022-08-07T20:29:48.061Z,2.10
2022-08-07T20:32:22.867Z,2.53
2022-08-07T20:34:58.941Z,3.15
2022-08-07T20:37:55.277Z,2.95
2022-08-07T20:40:33.367Z,2.80
2022-08-07T20:43:14.530Z,3.20
2022-08-07T20:46:25.636Z,2.30
2022-08-07T20:49:54.091Z,2.88
2022-08-07T20:51:36.113Z,2.75
2022-08-07T20:54:15.275Z,2.75
2022-08-07T20:57:03.376Z,2.60
2022-08-07T21:00:06.432Z,2.40
2022-08-07T21:02:54.359Z,2.70
2022-08-07T21:05:54.687Z,2.55
2022-08-07T21:08:51.851Z,3.00
2022-08-07T21:11:40.356Z,2.90
2022-08-07T21:14:33.394Z,3.08
2022-08-07T21:18:02.092Z,3.05
2022-08-07T21:20:09.956Z,2.60
2022-08-07T21:22:51.061Z,2.58
2022-08-07T21:25:30.366Z,2.90
2022-08-07T21:28:49.529Z,3.08
2022-08-07T21:32:42.692Z,2.58
2022-08-07T21:34:26.634Z,2.63
2022-08-07T21:37:23.823Z,2.63
2022-08-07T21:40:06.887Z,2.60
2022-08-07T21:42:48.305Z,2.40
2022-08-07T21:46:07.806Z,2.60
2022-08-07T21:49:04.686Z,2.88
2022-08-07T21:51:54.953Z,2.50
2022-08-07T21:54:48.626Z,2.30
2022-08-07T21:57:55.075Z,2.50
2022-08-07T22:00:26.519Z,2.75
2022-08-07T22:02:59.533Z,3.03
2022-08-07T22:05:44.670Z,3.08
2022-08-07T22:08:18.958Z,2.63
2022-08-07T22:10:54.947Z,2.53
2022-08-07T22:13:52.419Z,3.00
2022-08-07T22:16:38.653Z,3.22
2022-08-07T22:19:30.005Z,3.53
2022-08-07T22:22:18.199Z,2.80
2022-08-07T22:25:28.703Z,2.65
2022-08-07T22:28:32.115Z,3.25
2022-08-07T22:31:09.129Z,2.63
2022-08-07T22:33:57.402Z,2.70
2022-08-07T22:36:46.412Z,2.93
2022-08-07T22:39:51.881Z,2.80
2022-08-07T22:42:30.398Z,2.60
2022-08-07T22:45:04.066Z,2.35
2022-08-07T22:48:02.185Z,2.40
2022-08-07T22:50:57.411Z,2.57
2022-08-07T22:54:07.611Z,2.58
2022-08-07T22:57:00.700Z,2.42
2022-08-07T22:59:49.970Z,2.92
2022-08-07T23:02:43.953Z,2.58
2022-08-07T23:06:09.462Z,2.77
2022-08-07T23:08:31.570Z,2.40
2022-08-07T23:11:19.562Z,2.45
2022-08-07T23:14:16.117Z,2.15
2022-08-07T23:17:20.159Z,2.20
2022-08-07T23:20:40.772Z,2.13
2022-08-07T23:24:04.300Z,2.33
2022-08-07T23:27:04.571Z,1.65
2022-08-07T23:30:38.397Z,1.88
2022-08-07T23:34:36.301Z,2.30
2022-08-07T23:36:17.279Z,2.07
2022-08-07T23:38:58.746Z,1.65
2022-08-07T23:41:34.081Z,2.17
2022-08-07T23:44:47.894Z,1.73
2022-08-07T23:47:46.579Z,2.30
2022-08-07T23:50:36.843Z,2.07
2022-08-07T23:53:51.632Z,2.22
2022-08-07T23:56:54.579Z,2.00
